createdAt,value
2023-03-03T00:00:14.325Z,124.72
2023-03-03T00:02:41.426Z,114.55
2023-03-03T00:05:08.745Z,113.18
2023-03-03T00:07:35.648Z,113.90
2023-03-03T00:10:02.587Z,129.70
2023-03-03T00:12:31.104Z,130.18
2023-03-03T00:14:58.686Z,129.55
2023-03-03T00:17:31.058Z,139.98
2023-03-03T00:19:57.948Z,119.60
2023-03-03T00:22:51.550Z,123.47
2023-03-03T00:25:32.141Z,119.22
2023-03-03T00:28:24.094Z,125.07
2023-03-03T00:30:53.656Z,117.18
2023-03-03T00:33:29.526Z,126.95
2023-03-03T00:35:57.816Z,124.88
2023-03-03T00:38:24.846Z,117.78
2023-03-03T00:40:51.884Z,119.93
2023-03-03T00:43:29.157Z,115.90
2023-03-03T00:45:57.293Z,129.85
2023-03-03T00:48:36.114Z,117.70
2023-03-03T00:51:23.435Z,115.05
2023-03-03T00:53:50.964Z,115.53
2023-03-03T00:56:17.798Z,114.53
2023-03-03T00:58:46.578Z,101.10
2023-03-03T01:01:15.719Z,96.65
2023-03-03T01:03:46.721Z,112.78
2023-03-03T01:06:14.326Z,108.80
2023-03-03T01:08:41.194Z,121.43
2023-03-03T01:11:14.053Z,103.65
2023-03-03T01:13:44.617Z,100.13
2023-03-03T01:16:11.838Z,103.50
2023-03-03T01:18:40.459Z,106.57
2023-03-03T01:21:07.902Z,115.78
2023-03-03T01:23:34.898Z,131.40
2023-03-03T01:26:02.054Z,109.00
2023-03-03T01:28:28.891Z,128.18
2023-03-03T01:31:01.378Z,123.60
2023-03-03T01:33:28.464Z,134.55
2023-03-03T01:35:55.313Z,132.18
2023-03-03T01:38:22.166Z,124.35
2023-03-03T01:40:54.616Z,125.32
2023-03-03T01:43:22.449Z,134.02
2023-03-03T01:45:49.165Z,140.10
2023-03-03T01:48:25.810Z,144.43
2023-03-03T01:51:01.151Z,131.88
2023-03-03T01:53:44.858Z,132.27
2023-03-03T01:56:12.073Z,129.77
2023-03-03T01:58:56.664Z,132.15
2023-03-03T02:01:26.993Z,137.02
2023-03-03T02:03:54.586Z,131.23
2023-03-03T02:06:27.225Z,132.98
2023-03-03T02:09:06.700Z,138.02
2023-03-03T02:11:36.865Z,131.52
2023-03-03T02:14:04.029Z,133.93
2023-03-03T02:16:31.164Z,121.88
2023-03-03T02:18:59.709Z,122.03
2023-03-03T02:21:28.656Z,122.68
2023-03-03T02:23:58.478Z,115.63
2023-03-03T02:26:31.235Z,126.32
2023-03-03T02:29:03.475Z,116.97
2023-03-03T02:31:31.737Z,103.70
2023-03-03T02:34:00.021Z,120.63
2023-03-03T02:36:29.814Z,110.20
2023-03-03T02:38:56.543Z,105.90
2023-03-03T02:41:33.228Z,111.57
2023-03-03T02:44:13.213Z,112.63
2023-03-03T02:46:43.062Z,105.18
2023-03-03T02:49:11.908Z,112.65
2023-03-03T02:51:39.901Z,115.05
2023-03-03T02:54:08.965Z,114.40
2023-03-03T02:56:36.298Z,108.75
2023-03-03T02:59:05.196Z,112.05
2023-03-03T03:01:39.164Z,118.93
2023-03-03T03:04:16.157Z,121.43
2023-03-03T03:06:45.974Z,119.00
2023-03-03T03:09:15.841Z,117.28
2023-03-03T03:11:43.646Z,121.30
2023-03-03T03:14:12.381Z,109.32
2023-03-03T03:16:40.545Z,120.45
2023-03-03T03:19:07.659Z,102.10
2023-03-03T03:21:36.288Z,111.53
2023-03-03T03:24:05.126Z,100.72
2023-03-03T03:26:32.677Z,109.78
2023-03-03T03:28:59.998Z,108.80
2023-03-03T03:31:26.945Z,107.60
2023-03-03T03:33:53.798Z,108.45
2023-03-03T03:36:22.107Z,109.70
2023-03-03T03:38:49.357Z,111.32
2023-03-03T03:41:16.358Z,103.22
2023-03-03T03:43:43.562Z,102.72
2023-03-03T03:46:10.707Z,109.10
2023-03-03T03:48:38.050Z,109.72
2023-03-03T03:51:06.368Z,103.00
2023-03-03T03:53:34.454Z,108.43
2023-03-03T03:56:01.314Z,106.68
2023-03-03T03:58:28.520Z,104.13
2023-03-03T04:01:05.655Z,101.88
2023-03-03T04:03:35.023Z,108.78
2023-03-03T04:06:05.208Z,101.90
2023-03-03T04:08:32.136Z,101.88
2023-03-03T04:10:59.109Z,97.35
2023-03-03T04:13:29.157Z,96.07
2023-03-03T04:15:56.280Z,100.07
2023-03-03T04:18:23.310Z,98.05
2023-03-03T04:20:50.686Z,97.00
2023-03-03T04:23:17.665Z,106.78
2023-03-03T04:25:47.198Z,103.78
2023-03-03T04:28:16.608Z,114.20
2023-03-03T04:30:44.598Z,104.00
2023-03-03T04:33:11.908Z,103.93
2023-03-03T04:35:40.659Z,97.32
2023-03-03T04:38:07.872Z,94.95
2023-03-03T04:40:36.043Z,99.32
2023-03-03T04:43:04.343Z,95.50
2023-03-03T04:45:31.807Z,97.95
2023-03-03T04:47:58.962Z,101.97
2023-03-03T04:50:25.881Z,101.80
2023-03-03T04:52:54.050Z,90.25
2023-03-03T04:55:21.419Z,90.15
2023-03-03T04:57:48.949Z,89.10
2023-03-03T05:00:17.480Z,99.30
2023-03-03T05:02:44.280Z,96.03
2023-03-03T05:05:13.952Z,94.80
2023-03-03T05:07:41.146Z,94.20
2023-03-03T05:10:08.601Z,100.13
2023-03-03T05:12:35.519Z,93.43
2023-03-03T05:15:02.416Z,93.03
2023-03-03T05:17:29.269Z,97.05
2023-03-03T05:19:57.383Z,98.18
2023-03-03T05:22:24.799Z,97.10
2023-03-03T05:24:51.761Z,93.15
2023-03-03T05:27:19.298Z,98.80
2023-03-03T05:29:46.843Z,109.43
2023-03-03T05:32:13.800Z,105.97
2023-03-03T05:34:40.821Z,95.45
2023-03-03T05:37:07.666Z,99.85
2023-03-03T05:39:35.253Z,106.75
2023-03-03T05:42:04.610Z,108.13
2023-03-03T05:44:31.396Z,111.30
2023-03-03T05:46:59.319Z,106.22
2023-03-03T05:49:26.765Z,111.75
2023-03-03T05:51:53.658Z,104.35
2023-03-03T05:54:20.772Z,114.13
2023-03-03T05:56:47.678Z,119.50
2023-03-03T05:59:14.566Z,105.03
2023-03-03T06:01:41.507Z,119.80
2023-03-03T06:04:08.750Z,112.57
2023-03-03T06:06:35.822Z,108.03
2023-03-03T06:09:03.524Z,98.88
2023-03-03T06:11:30.385Z,103.35
2023-03-03T06:13:57.295Z,103.90
2023-03-03T06:16:24.222Z,92.60
2023-03-03T06:18:51.314Z,105.13
2023-03-03T06:21:18.140Z,96.38
2023-03-03T06:23:44.900Z,90.78
2023-03-03T06:26:11.773Z,93.43
2023-03-03T06:28:38.663Z,106.95
2023-03-03T06:31:05.708Z,107.45
2023-03-03T06:33:32.654Z,121.53
2023-03-03T06:35:59.745Z,101.95
2023-03-03T06:38:26.715Z,108.18
2023-03-03T06:40:53.630Z,98.85
2023-03-03T06:43:20.727Z,102.05
2023-03-03T06:45:47.601Z,103.68
2023-03-03T06:48:14.399Z,110.53
2023-03-03T06:50:41.244Z,113.65
2023-03-03T06:53:13.433Z,119.32
2023-03-03T06:55:41.322Z,111.20
2023-03-03T06:58:18.803Z,120.15
2023-03-03T07:00:57.805Z,125.18
2023-03-03T07:03:29.771Z,104.05
2023-03-03T07:05:56.636Z,106.25
2023-03-03T07:08:24.991Z,114.05
2023-03-03T07:10:55.208Z,113.63
2023-03-03T07:15:55.159Z,114.07
2023-03-03T07:18:30.038Z,118.50
2023-03-03T07:20:59.424Z,119.13
2023-03-03T07:23:30.904Z,118.78
2023-03-03T07:25:57.774Z,126.47
2023-03-03T07:28:29.552Z,129.63
2023-03-03T07:31:01.122Z,119.80
2023-03-03T07:33:45.909Z,126.45
2023-03-03T07:36:40.266Z,113.30
2023-03-03T07:39:40.968Z,98.05
2023-03-03T07:42:30.178Z,99.18
2023-03-03T07:45:33.939Z,105.63
2023-03-03T07:48:16.832Z,117.22
2023-03-03T07:50:44.762Z,102.13
2023-03-03T07:53:22.067Z,111.30
2023-03-03T07:55:49.937Z,115.78
2023-03-03T07:58:27.886Z,116.15
2023-03-03T08:01:28.059Z,116.55
2023-03-03T08:06:35.743Z,100.30
2023-03-03T08:09:11.612Z,107.32
2023-03-03T08:11:51.785Z,97.35
2023-03-03T08:14:35.225Z,97.38
2023-03-03T08:17:07.545Z,96.40
2023-03-03T08:19:34.656Z,97.50
2023-03-03T08:22:13.753Z,104.75
2023-03-03T08:24:40.679Z,95.35
2023-03-03T08:27:07.572Z,92.15
2023-03-03T08:29:34.392Z,94.10
2023-03-03T08:32:01.557Z,93.45
2023-03-03T08:34:28.460Z,99.07
2023-03-03T08:36:58.264Z,100.57
2023-03-03T08:39:25.236Z,95.88
2023-03-03T08:41:52.053Z,95.50
2023-03-03T08:44:20.520Z,84.95
2023-03-03T08:46:47.634Z,96.38
2023-03-03T08:49:14.773Z,97.97
2023-03-03T08:51:41.893Z,91.13
2023-03-03T08:54:09.367Z,92.18
2023-03-03T08:56:36.196Z,97.40
2023-03-03T08:59:03.508Z,91.68
2023-03-03T09:01:31.896Z,102.38
2023-03-03T09:03:58.986Z,95.47
2023-03-03T09:06:25.794Z,103.82
2023-03-03T09:08:54.910Z,96.55
2023-03-03T09:11:27.777Z,100.70
2023-03-03T09:14:03.285Z,101.07
2023-03-03T09:16:37.363Z,101.60
2023-03-03T09:19:20.475Z,100.88
2023-03-03T09:21:47.506Z,98.65
2023-03-03T09:24:33.014Z,102.32
2023-03-03T09:27:00.160Z,109.07
2023-03-03T09:29:29.548Z,103.88
2023-03-03T09:32:01.369Z,100.00
2023-03-03T09:34:37.358Z,93.53
2023-03-03T09:37:34.226Z,93.65
2023-03-03T09:40:01.195Z,110.82
2023-03-03T09:42:43.237Z,105.43
2023-03-03T09:45:18.924Z,104.07
2023-03-03T09:48:00.931Z,118.32
2023-03-03T09:50:44.609Z,110.55
2023-03-03T09:53:11.889Z,123.60
2023-03-03T10:07:13.675Z,108.63
2023-03-03T10:10:01.947Z,116.00
2023-03-03T10:12:36.061Z,116.93
2023-03-03T10:15:32.660Z,112.80
2023-03-03T10:18:04.633Z,107.82
2023-03-03T10:20:47.587Z,126.22
2023-03-03T10:23:21.335Z,123.53
2023-03-03T10:26:05.833Z,122.10
2023-03-03T10:29:04.137Z,106.40
2023-03-03T10:31:53.851Z,115.45
2023-03-03T10:34:58.392Z,124.80
2023-03-03T10:37:43.661Z,112.38
2023-03-03T10:40:18.660Z,120.60
2023-03-03T10:43:00.860Z,119.22
2023-03-03T10:45:35.526Z,121.65
2023-03-03T10:48:19.001Z,123.05
2023-03-03T10:51:14.162Z,117.75
2023-03-03T10:54:11.390Z,122.85
2023-03-03T10:56:53.912Z,106.63
2023-03-03T10:59:45.420Z,117.15
2023-03-03T11:02:22.814Z,111.18
2023-03-03T11:04:49.780Z,109.40
2023-03-03T11:07:46.496Z,112.45
2023-03-03T11:10:29.171Z,108.43
2023-03-03T11:12:59.856Z,113.47
2023-03-03T11:15:47.404Z,106.00
2023-03-03T11:18:32.960Z,108.50
2023-03-03T11:21:18.122Z,102.60
2023-03-03T11:23:48.005Z,89.60
2023-03-03T11:26:17.331Z,94.13
2023-03-03T11:29:17.217Z,86.05
2023-03-03T11:31:50.073Z,89.80
2023-03-03T11:34:48.044Z,91.63
2023-03-03T11:37:20.091Z,88.68
2023-03-03T11:39:49.704Z,83.63
2023-03-03T11:42:34.482Z,86.95
2023-03-03T11:45:11.365Z,85.18
2023-03-03T11:47:51.471Z,80.43
2023-03-03T11:51:07.604Z,83.72
2023-03-03T11:53:54.652Z,83.53
2023-03-03T11:56:28.505Z,85.50
2023-03-03T11:59:12.200Z,82.43
2023-03-03T12:01:54.655Z,81.82
2023-03-03T12:04:32.657Z,77.20
2023-03-03T12:07:19.367Z,71.80
2023-03-03T12:10:03.086Z,79.47
2023-03-03T12:12:43.521Z,75.55
2023-03-03T12:15:32.035Z,71.30
2023-03-03T12:18:40.799Z,77.45
2023-03-03T12:21:33.196Z,68.90
2023-03-03T12:24:24.665Z,68.80
2023-03-03T12:27:40.921Z,68.15
2023-03-03T12:30:10.889Z,63.42
2023-03-03T12:32:52.884Z,66.75
2023-03-03T12:35:36.473Z,69.95
2023-03-03T12:38:40.743Z,61.55
2023-03-03T12:41:16.700Z,58.78
2023-03-03T12:44:00.332Z,65.43
2023-03-03T12:46:36.321Z,56.22
2023-03-03T12:49:03.216Z,60.75
2023-03-03T12:51:59.892Z,60.08
2023-03-03T12:55:12.934Z,63.92
2023-03-03T12:57:46.292Z,57.22
2023-03-03T13:00:41.454Z,52.13
2023-03-03T13:03:18.829Z,55.35
2023-03-03T13:05:57.125Z,47.83
2023-03-03T13:08:23.991Z,51.63
2023-03-03T13:10:59.767Z,65.40
2023-03-03T13:13:49.489Z,51.13
2023-03-03T13:16:38.974Z,56.40
2023-03-03T13:19:21.268Z,50.38
2023-03-03T13:21:55.778Z,50.47
2023-03-03T13:24:42.894Z,54.20
2023-03-03T13:27:17.022Z,50.78
2023-03-03T13:29:59.734Z,47.50
2023-03-03T13:32:44.216Z,52.10
2023-03-03T13:35:24.424Z,43.30
2023-03-03T13:37:57.331Z,44.50
2023-03-03T13:40:28.018Z,44.80
2023-03-03T13:42:57.781Z,49.05
2023-03-03T13:45:36.848Z,45.60
2023-03-03T13:48:28.690Z,49.47
2023-03-03T13:51:01.426Z,47.80
2023-03-03T13:53:52.748Z,53.08
2023-03-03T13:56:40.685Z,45.60
2023-03-03T13:59:24.103Z,42.08
2023-03-03T14:02:02.599Z,39.95
2023-03-03T14:04:32.506Z,44.80
2023-03-03T14:09:58.004Z,45.45
2023-03-03T14:12:28.827Z,42.20
2023-03-03T14:15:16.691Z,37.60
2023-03-03T14:18:14.822Z,41.95
2023-03-03T14:20:47.272Z,40.20
2023-03-03T14:23:19.752Z,36.65
2023-03-03T14:26:03.823Z,49.45
2023-03-03T14:28:40.105Z,45.25
2023-03-03T14:31:18.182Z,45.45
2023-03-03T14:33:58.370Z,47.10
2023-03-03T14:38:57.331Z,48.92
2023-03-03T14:41:44.536Z,48.05
2023-03-03T14:44:35.837Z,50.53
2023-03-03T14:47:18.392Z,46.70
2023-03-03T14:49:45.503Z,51.63
2023-03-03T14:52:15.242Z,49.25
2023-03-03T14:54:48.523Z,45.25
2023-03-03T14:57:18.555Z,47.33
2023-03-03T15:00:06.868Z,56.88
2023-03-03T15:03:02.632Z,46.78
2023-03-03T15:05:32.080Z,56.67
2023-03-03T15:08:04.766Z,51.42
2023-03-03T15:10:36.477Z,53.10
2023-03-03T15:13:23.792Z,53.00
2023-03-03T15:16:03.625Z,48.35
2023-03-03T15:18:33.961Z,51.17
2023-03-03T15:21:08.551Z,46.95
2023-03-03T15:24:07.590Z,50.42
2023-03-03T15:26:52.596Z,49.85
2023-03-03T15:29:44.274Z,56.22
2023-03-03T15:32:32.072Z,50.97
2023-03-03T15:35:17.849Z,54.00
2023-03-03T15:38:09.950Z,59.55
2023-03-03T15:40:52.346Z,50.65
2023-03-03T15:43:46.196Z,53.13
2023-03-03T15:46:34.401Z,56.63
2023-03-03T15:49:24.871Z,58.10
2023-03-03T15:52:23.667Z,66.07
2023-03-03T15:55:04.992Z,63.30
2023-03-03T15:57:53.164Z,58.38
2023-03-03T16:00:31.967Z,50.20
2023-03-03T16:03:06.067Z,60.53
2023-03-03T16:05:49.581Z,68.43
2023-03-03T16:09:02.416Z,63.95
2023-03-03T16:11:41.854Z,63.58
2023-03-03T16:14:44.208Z,55.95
2023-03-03T16:17:41.700Z,53.53
2023-03-03T16:20:14.391Z,54.33
2023-03-03T16:23:08.687Z,54.95
2023-03-03T16:25:52.495Z,57.72
2023-03-03T16:28:29.888Z,53.92
2023-03-03T16:31:06.646Z,58.03
2023-03-03T16:33:44.348Z,56.25
2023-03-03T16:36:37.312Z,56.60
2023-03-03T16:39:26.163Z,55.72
2023-03-03T16:41:58.518Z,51.35
2023-03-03T16:44:47.924Z,62.60
2023-03-03T16:47:17.728Z,58.63
2023-03-03T16:49:50.843Z,54.78
2023-03-03T16:52:23.576Z,56.03
2023-03-03T16:55:15.793Z,58.58
2023-03-03T16:57:54.175Z,58.78
2023-03-03T17:00:29.682Z,54.85
2023-03-03T17:03:19.914Z,57.45
2023-03-03T17:06:37.839Z,62.28
2023-03-03T17:09:32.590Z,50.55
2023-03-03T17:12:35.016Z,55.78
2023-03-03T17:15:20.184Z,55.25
2023-03-03T17:17:51.632Z,54.92
2023-03-03T17:20:48.686Z,54.75
2023-03-03T17:23:23.309Z,60.22
2023-03-03T17:25:55.875Z,53.08
2023-03-03T17:28:37.685Z,53.60
2023-03-03T17:31:13.382Z,57.67
2023-03-03T17:34:03.302Z,63.10
2023-03-03T17:37:03.752Z,52.55
2023-03-03T17:39:39.407Z,55.67
2023-03-03T17:42:19.321Z,50.70
2023-03-03T17:45:00.941Z,62.13
2023-03-03T17:47:34.129Z,53.42
2023-03-03T17:50:32.936Z,53.83
2023-03-03T17:53:30.217Z,55.58
2023-03-03T17:56:18.806Z,68.90
2023-03-03T17:59:15.275Z,49.45
2023-03-03T18:01:54.488Z,51.42
2023-03-03T18:04:40.996Z,60.43
2023-03-03T18:07:44.059Z,60.83
2023-03-03T18:10:47.785Z,69.60
2023-03-03T18:13:36.719Z,76.25
2023-03-03T18:16:27.428Z,66.20
2023-03-03T18:19:08.030Z,63.15
2023-03-03T18:21:49.413Z,67.05
2023-03-03T18:24:25.574Z,61.08
2023-03-03T18:26:56.707Z,68.78
2023-03-03T18:29:24.898Z,68.05
2023-03-03T18:31:57.952Z,60.35
2023-03-03T18:34:29.870Z,66.50
2023-03-03T18:37:02.936Z,57.63
2023-03-03T18:39:50.670Z,68.95
2023-03-03T18:42:17.435Z,65.15
2023-03-03T18:44:45.047Z,72.80
2023-03-03T18:47:12.365Z,64.55
2023-03-03T18:49:53.245Z,68.07
2023-03-03T18:52:28.053Z,67.63
2023-03-03T18:55:09.863Z,68.45
2023-03-03T18:57:38.223Z,69.45
2023-03-03T19:00:49.293Z,69.13
2023-03-03T19:03:25.260Z,79.28
2023-03-03T19:05:54.344Z,71.72
2023-03-03T19:08:29.718Z,74.78
2023-03-03T19:11:33.105Z,90.13
2023-03-03T19:14:37.265Z,80.93
2023-03-03T19:17:27.096Z,88.55
2023-03-03T19:22:49.087Z,89.78
2023-03-03T19:25:26.089Z,87.97
2023-03-03T19:28:00.828Z,88.45
2023-03-03T19:30:37.864Z,83.97
2023-03-03T19:33:13.729Z,84.90
2023-03-03T19:35:51.854Z,77.55
2023-03-03T19:38:32.403Z,79.70
2023-03-03T19:41:43.290Z,92.85
2023-03-03T19:44:43.676Z,79.93
2023-03-03T19:47:14.785Z,87.47
2023-03-03T19:50:20.866Z,80.85
2023-03-03T19:53:13.425Z,83.57
2023-03-03T19:55:49.321Z,89.15
2023-03-03T19:58:46.641Z,87.50
2023-03-03T20:01:29.788Z,86.53
2023-03-03T20:04:20.991Z,93.82
2023-03-03T20:07:04.853Z,92.13
2023-03-03T20:09:53.429Z,95.45
2023-03-03T20:12:20.276Z,94.40
2023-03-03T20:14:49.260Z,96.00
2023-03-03T20:17:31.083Z,96.93
2023-03-03T20:20:36.896Z,99.28
2023-03-03T20:23:42.211Z,92.28
2023-03-03T20:26:14.617Z,100.85
2023-03-03T20:28:59.944Z,99.15
2023-03-03T20:31:50.317Z,102.30
2023-03-03T20:34:29.970Z,97.88
2023-03-03T20:37:04.683Z,94.85
2023-03-03T20:40:00.068Z,103.38
2023-03-03T20:42:35.820Z,100.20
2023-03-03T20:45:30.225Z,97.20
2023-03-03T20:48:35.781Z,91.45
2023-03-03T20:51:18.017Z,95.93
2023-03-03T20:54:06.952Z,93.38
2023-03-03T20:56:44.053Z,98.45
2023-03-03T20:59:32.671Z,90.75
2023-03-03T21:02:15.512Z,97.82
2023-03-03T21:04:42.555Z,88.15
2023-03-03T21:07:22.807Z,81.85
2023-03-03T21:12:31.015Z,89.47
2023-03-03T21:15:08.772Z,92.75
2023-03-03T21:17:36.432Z,92.85
2023-03-03T21:20:27.869Z,95.93
2023-03-03T21:22:56.099Z,95.22
2023-03-03T21:25:41.686Z,101.35
2023-03-03T21:28:32.537Z,100.53
2023-03-03T21:31:05.309Z,94.13
2023-03-03T21:33:50.096Z,91.57
2023-03-03T21:36:18.482Z,89.53
2023-03-03T21:38:46.452Z,92.38
2023-03-03T21:41:15.166Z,96.43
2023-03-03T21:43:44.658Z,103.28
2023-03-03T21:46:12.808Z,95.90
2023-03-03T21:48:42.921Z,100.93
2023-03-03T21:51:11.281Z,102.50
2023-03-03T21:53:38.137Z,110.65
2023-03-03T21:56:05.433Z,102.20
2023-03-03T21:58:32.224Z,102.63
2023-03-03T22:00:59.258Z,106.57
2023-03-03T22:03:29.144Z,110.95
2023-03-03T22:05:56.375Z,130.32
2023-03-03T22:08:23.620Z,136.10
2023-03-03T22:10:56.442Z,133.85
2023-03-03T22:13:25.608Z,131.80
2023-03-03T22:15:56.553Z,131.40
2023-03-03T22:18:23.610Z,125.78
2023-03-03T22:20:50.815Z,127.57
2023-03-03T22:23:20.854Z,130.32
2023-03-03T22:25:51.508Z,130.25
2023-03-03T22:28:21.301Z,117.85
2023-03-03T22:30:48.368Z,134.30
2023-03-03T22:33:15.837Z,127.20
2023-03-03T22:35:42.852Z,120.45
2023-03-03T22:38:09.678Z,135.43
2023-03-03T22:40:36.473Z,122.70
2023-03-03T22:43:03.670Z,121.30
2023-03-03T22:45:30.628Z,123.75
2023-03-03T22:47:57.530Z,119.18
2023-03-03T22:50:24.453Z,132.35
2023-03-03T22:52:51.546Z,123.60
2023-03-03T22:55:18.443Z,127.63
2023-03-03T22:57:48.423Z,130.70
2023-03-03T23:00:16.073Z,140.27
2023-03-03T23:02:43.112Z,128.00
2023-03-03T23:05:16.152Z,136.30
2023-03-03T23:07:44.444Z,130.05
2023-03-03T23:10:13.423Z,135.25
2023-03-03T23:12:40.866Z,135.55
2023-03-03T23:15:13.415Z,126.55
2023-03-03T23:17:44.607Z,133.15
2023-03-03T23:20:14.189Z,140.00
2023-03-03T23:22:41.129Z,131.70
2023-03-03T23:25:08.625Z,137.98
2023-03-03T23:27:35.742Z,125.70
2023-03-03T23:30:02.769Z,135.73
2023-03-03T23:32:29.752Z,129.00
2023-03-03T23:34:56.688Z,122.68
2023-03-03T23:37:23.594Z,137.68
2023-03-03T23:39:50.472Z,131.20
2023-03-03T23:42:17.445Z,124.75
2023-03-03T23:44:45.518Z,135.02
2023-03-03T23:47:16.240Z,132.40
2023-03-03T23:49:43.531Z,122.38
2023-03-03T23:52:10.351Z,123.32
2023-03-03T23:54:37.244Z,145.40
2023-03-03T23:57:04.108Z,124.07
2023-03-03T23:59:31.083Z,119.15
